Time;durP1;ratioP1;P1;durP2;ratioP2;P2;SDS_P1;SDS_P2;PMS_P1;PMS_P2;Temp;Humidity;BMP_temperature;BMP_pressure;BME280_temperature;BME280_humidity;BME280_pressure;Samples;Min_cycle;Max_cycle;Signal;HPM_P1;HPM_P2
2024/04/09 17:01:38;;;;;;;;;0.00;0.00;;;;;24.22;40.43;101797.31;5178183;23;45441;-76
2024/04/09 17:04:06;;;;;;;;;0.33;0.00;;;;;24.21;40.14;101798.28;4937510;28;45433;-75
2024/04/09 17:06:32;;;;;;;;;0.00;0.00;;;;;24.21;40.49;101804.44;4938902;28;45433;-76
2024/04/09 17:08:57;;;;;;;;;0.00;0.00;;;;;24.10;40.25;101795.00;4938685;28;45526;-74
2024/04/09 17:11:23;;;;;;;;;0.00;0.00;;;;;24.20;39.99;101807.28;4939747;28;45394;-74
2024/04/09 17:13:48;;;;;;;;;0.67;0.33;;;;;24.21;40.29;101817.75;4939981;28;45447;-74
2024/04/09 17:16:14;;;;;;;;;0.00;0.00;;;;;24.21;40.28;101820.41;4939581;28;46768;-74
2024/04/09 17:18:40;;;;;;;;;0.00;0.00;;;;;24.21;40.22;101823.06;4939332;28;45363;-75
2024/04/09 17:21:09;;;;;;;;;0.00;0.00;;;;;24.16;39.90;101822.75;4938665;28;45332;-74
2024/04/09 17:23:35;;;;;;;;;0.00;0.00;;;;;24.13;40.36;101826.56;4939647;28;45605;-75
2024/04/09 17:26:04;;;;;;;;;0.33;0.00;;;;;24.20;40.16;101836.53;4939361;28;46878;-75
2024/04/09 17:28:30;;;;;;;;;0.00;0.00;;;;;24.20;40.24;101842.66;4939566;28;45218;-74
2024/04/09 17:30:56;;;;;;;;;0.00;0.00;;;;;24.21;40.47;101854.13;4939714;28;45268;-74
2024/04/09 17:33:21;;;;;;;;;0.00;0.00;;;;;24.20;40.21;101852.50;4939286;28;45489;-75
2024/04/09 17:35:47;;;;;;;;;0.00;0.00;;;;;24.12;40.43;101851.53;4938218;28;47009;-76
2024/04/09 17:38:13;;;;;;;;;1.33;0.00;;;;;24.20;40.04;101876.41;4939323;28;45437;-74
2024/04/09 17:40:38;;;;;;;;;0.00;0.00;;;;;24.19;40.31;101875.59;4939713;28;45292;-74
2024/04/09 17:43:06;;;;;;;;;0.00;0.00;;;;;24.20;40.18;101884.41;4939614;28;45502;-75
2024/04/09 17:45:32;;;;;;;;;4.00;0.00;;;;;24.20;40.37;101893.19;4939130;28;46064;-75
2024/04/09 17:47:58;;;;;;;;;1.00;0.00;;;;;24.18;40.17;101880.06;4938625;28;45403;-76
2024/04/09 17:50:23;;;;;;;;;0.00;0.00;;;;;24.19;40.29;101907.50;4958183;28;45528;-75
2024/04/09 17:52:50;;;;;;;;;1.00;0.00;;;;;24.18;40.24;101904.00;4958830;28;45354;-76
2024/04/09 17:55:16;;;;;;;;;0.00;0.00;;;;;24.12;40.36;101898.53;4958229;28;46248;-76
2024/04/09 17:57:42;;;;;;;;;0.00;0.00;;;;;24.16;40.40;101911.31;4958296;28;45319;-75
2024/04/09 18:00:08;;;;;;;;;0.00;0.00;;;;;24.17;39.92;101914.81;4958149;28;45236;-76
2024/04/09 18:02:34;;;;;;;;;0.00;0.00;;;;;24.17;40.29;101914.81;4953594;28;45280;-76
2024/04/09 18:05:00;;;;;;;;;0.67;0.67;;;;;24.15;40.18;101925.59;4938605;28;46266;-77
2024/04/09 18:07:25;;;;;;;;;0.67;0.00;;;;;24.15;40.18;101933.56;4938780;28;45309;-76
2024/04/09 18:09:50;;;;;;;;;0.00;0.00;;;;;24.11;40.15;101928.78;4938892;28;45407;-75
2024/04/09 18:12:16;;;;;;;;;0.00;0.00;;;;;24.15;40.19;101946.03;4938929;28;45352;-77
2024/04/09 18:14:42;;;;;;;;;1.00;0.00;;;;;24.05;39.96;101930.25;4938689;28;45851;-77
2024/04/09 18:17:07;;;;;;;;;0.00;0.00;;;;;24.10;40.30;101943.88;4938535;28;45339;-76
2024/04/09 18:19:33;;;;;;;;;1.00;0.00;;;;;24.12;40.26;101957.03;4939121;28;45252;-77
2024/04/09 18:21:58;;;;;;;;;1.00;0.00;;;;;24.02;40.12;101949.22;4937819;28;45504;-78
2024/04/09 18:24:24;;;;;;;;;0.00;0.00;;;;;24.12;40.48;101951.72;4947100;28;45430;-77
2024/04/09 18:26:49;;;;;;;;;0.67;0.67;;;;;24.12;40.14;101970.31;4949687;28;45474;-77
2024/04/09 18:29:14;;;;;;;;;1.33;0.00;;;;;24.11;40.06;101981.94;4938314;28;45725;-76
2024/04/09 18:31:40;;;;;;;;;0.00;0.00;;;;;24.04;40.14;101972.00;4938682;28;45457;-77
2024/04/09 18:34:05;;;;;;;;;3.00;0.00;;;;;24.07;40.10;101989.44;4938644;28;46986;-77
2024/04/09 18:36:30;;;;;;;;;0.00;0.00;;;;;24.06;39.92;101993.91;4938645;28;45200;-78
2024/04/09 18:38:57;;;;;;;;;0.00;0.00;;;;;24.02;40.49;101989.91;4938299;28;45760;-77
2024/04/09 18:41:23;;;;;;;;;0.00;0.00;;;;;24.06;40.02;102001.06;4938603;28;45473;-77
2024/04/09 18:43:49;;;;;;;;;1.00;0.00;;;;;23.96;40.06;101991.44;4937821;28;46200;-77
2024/04/09 18:46:14;;;;;;;;;0.00;0.00;;;;;24.04;40.13;102005.72;4937759;28;45284;-76
2024/04/09 18:48:40;;;;;;;;;0.33;0.00;;;;;24.03;40.09;102018.16;4938538;28;45508;-77
2024/04/09 18:51:07;;;;;;;;;0.33;0.00;;;;;24.03;39.97;102018.16;4937994;28;45609;-77
2024/04/09 18:53:33;;;;;;;;;1.00;0.00;;;;;24.03;40.43;102020.00;4938165;28;47068;-77
2024/04/09 18:55:59;;;;;;;;;0.00;0.00;;;;;24.03;40.26;102034.13;4936666;28;45343;-77
2024/04/09 18:58:25;;;;;;;;;0.33;0.33;;;;;24.03;40.08;102031.47;4938132;28;45395;-77
2024/04/09 19:00:51;;;;;;;;;0.00;0.00;;;;;23.94;40.03;102024.50;4938066;28;45279;-76
2024/04/09 19:03:17;;;;;;;;;0.00;0.00;;;;;24.02;40.18;102047.59;4920372;28;46829;-73
2024/04/09 19:05:43;;;;;;;;;1.00;0.00;;;;;24.02;40.40;102051.06;4937352;28;45343;-77
2024/04/09 19:08:09;;;;;;;;;0.00;0.00;;;;;24.03;40.53;102055.38;4937259;28;45223;-75
2024/04/09 19:10:38;;;;;;;;;0.00;0.00;;;;;24.00;40.19;102054.88;4937944;28;45228;-76
2024/04/09 19:13:03;;;;;;;;;0.67;0.67;;;;;23.93;39.89;102041.41;4937404;28;46655;-76
2024/04/09 19:15:29;;;;;;;;;0.00;0.00;;;;;24.03;40.23;102059.88;4937666;28;45384;-77
2024/04/09 19:17:54;;;;;;;;;1.00;1.00;;;;;23.92;40.10;102055.69;4938087;28;45358;-76
2024/04/09 19:20:20;;;;;;;;;0.00;0.00;;;;;24.04;39.80;102075.66;4937488;28;45459;-76
2024/04/09 19:22:48;;;;;;;;;1.00;0.00;;;;;23.94;40.08;102065.16;4937975;28;45476;-81
2024/04/09 19:25:13;;;;;;;;;2.00;0.00;;;;;24.02;40.53;102072.31;4940171;28;45404;-81
2024/04/09 19:27:39;;;;;;;;;0.33;0.33;;;;;24.07;39.65;102091.28;4971817;28;45258;-80
2024/04/09 19:30:04;;;;;;;;;0.00;0.00;;;;;23.95;40.16;102072.16;4957041;28;45318;-77
2024/04/09 19:32:32;;;;;;;;;0.00;0.00;;;;;24.10;40.34;102100.75;4971799;28;46536;-77
2024/04/09 19:34:58;;;;;;;;;1.67;0.67;;;;;24.10;40.50;102106.06;4971949;28;45477;-77
2024/04/09 19:37:26;;;;;;;;;0.00;0.00;;;;;24.10;40.41;102106.06;4956917;28;45446;-77
2024/04/09 19:39:54;;;;;;;;;1.00;1.00;;;;;24.11;40.90;102110.41;4956934;28;45392;-81
2024/04/09 19:42:20;;;;;;;;;0.00;0.00;;;;;23.94;41.03;102081.13;4955943;28;45376;-77
2024/04/09 19:44:46;;;;;;;;;2.00;0.00;;;;;24.01;41.25;102099.09;4939480;28;45482;-78
2024/04/09 19:47:11;;;;;;;;;6.00;0.00;;;;;24.14;41.70;102117.22;4936767;28;45467;-79
2024/04/09 19:49:39;;;;;;;;;1.33;0.00;;;;;24.14;42.48;102117.22;4933118;28;45391;-79
2024/04/09 19:52:05;;;;;;;;;0.00;0.00;;;;;24.02;42.23;102090.94;4933718;28;45363;-79
2024/04/09 19:54:31;;;;;;;;;0.67;0.67;;;;;24.19;42.23;102112.25;4926011;28;45491;-78
2024/04/09 19:56:56;;;;;;;;;0.67;0.00;;;;;24.22;42.39;102119.91;4936251;28;45387;-77
2024/04/09 19:59:22;;;;;;;;;0.00;0.00;;;;;24.13;42.38;102103.09;4933896;28;45277;-78
2024/04/09 20:01:47;;;;;;;;;1.00;0.00;;;;;24.25;42.72;102116.88;4927648;28;45289;-76
2024/04/09 20:04:12;;;;;;;;;3.33;0.33;;;;;24.23;42.73;102115.38;4931110;28;45383;-79
2024/04/09 20:06:38;;;;;;;;;0.00;0.00;;;;;24.03;43.03;102087.28;4936624;28;45874;-79
2024/04/09 20:09:04;;;;;;;;;0.00;0.00;;;;;24.16;42.65;102116.06;4935610;28;45412;-76
2024/04/09 20:11:29;;;;;;;;;0.00;0.00;;;;;24.15;42.52;102117.03;4929830;28;47194;-75
2024/04/09 20:13:55;;;;;;;;;0.00;0.00;;;;;24.25;42.45;102124.84;4936334;28;45468;-79
2024/04/09 20:16:21;;;;;;;;;0.00;0.00;;;;;24.16;41.99;102110.75;4936780;28;45521;-78
2024/04/09 20:18:47;;;;;;;;;0.67;0.00;;;;;24.29;41.97;102136.03;4938223;28;45375;-78
2024/04/09 20:21:13;;;;;;;;;0.00;0.00;;;;;24.29;41.99;102141.38;4937971;28;46481;-77
2024/04/09 20:23:38;;;;;;;;;0.00;0.00;;;;;23.82;41.63;102072.63;4935033;28;45298;-79
2024/04/09 20:26:04;;;;;;;;;0.33;0.33;;;;;24.18;41.66;102129.19;4931499;28;45435;-78
2024/04/09 20:28:29;;;;;;;;;0.00;0.00;;;;;24.09;42.13;102117.72;4941272;28;45303;-80
2024/04/09 20:30:56;;;;;;;;;0.00;0.00;;;;;24.31;41.79;102152.66;4937198;28;46095;-77
2024/04/09 20:33:22;;;;;;;;;0.67;0.00;;;;;24.32;41.85;102156.16;4936612;28;45377;-79
2024/04/09 20:35:50;;;;;;;;;2.00;0.00;;;;;24.21;41.89;102128.03;4936983;28;45530;-78
2024/04/09 20:38:15;;;;;;;;;1.33;0.33;;;;;24.33;41.78;102145.34;4931910;28;45384;-77
2024/04/09 20:40:41;;;;;;;;;0.33;0.00;;;;;24.34;41.27;102155.00;4935982;28;46089;-77
2024/04/09 20:43:06;;;;;;;;;0.00;0.00;;;;;23.99;41.60;102101.06;4938351;28;45725;-89
2024/04/09 20:45:32;;;;;;;;;0.00;0.00;;;;;24.34;41.54;102154.16;4939234;28;45441;-89
2024/04/09 20:47:57;;;;;;;;;0.00;0.00;;;;;24.23;41.72;102144.63;4937695;28;45417;-94
2024/04/09 20:50:22;;;;;;;;;0.67;0.00;;;;;24.25;41.79;102150.66;4936473;28;45926;-80
2024/04/09 20:52:48;;;;;;;;;1.00;0.00;;;;;24.23;41.57;102153.44;4941287;28;45410;-80
2024/04/09 20:55:14;;;;;;;;;0.67;0.00;;;;;24.22;41.53;102146.50;4937103;28;45370;-82
2024/04/09 20:57:39;;;;;;;;;1.00;0.00;;;;;24.34;41.62;102173.63;4936114;28;45502;-81
2024/04/09 21:00:05;;;;;;;;;1.67;0.00;;;;;24.30;41.66;102174.97;4931460;28;46628;-81
2024/04/09 21:02:31;;;;;;;;;0.00;0.00;;;;;24.25;41.60;102161.28;4925078;28;45223;-86
2024/04/09 21:04:57;;;;;;;;;3.00;0.00;;;;;24.31;41.87;102171.28;4951394;28;45320;-79
2024/04/09 21:07:23;;;;;;;;;0.00;0.00;;;;;24.30;41.80;102174.97;4919088;28;45521;-79
2024/04/09 21:09:49;;;;;;;;;1.00;0.00;;;;;24.34;41.83;102194.91;4923978;28;45338;-80
2024/04/09 21:12:15;;;;;;;;;2.00;0.00;;;;;24.35;42.06;102191.25;4942512;28;45352;-79
2024/04/09 21:14:41;;;;;;;;;2.00;1.00;;;;;24.36;41.91;102195.56;4940623;28;45372;-79
2024/04/09 21:17:06;;;;;;;;;1.00;0.00;;;;;24.31;42.08;102197.03;4938289;28;45422;-79
2024/04/09 21:19:31;;;;;;;;;0.00;0.00;;;;;24.36;41.94;102208.88;4938494;28;46063;-80
2024/04/09 21:21:57;;;;;;;;;0.00;0.00;;;;;24.38;41.93;102222.81;4939349;28;45426;-81
2024/04/09 21:24:24;;;;;;;;;1.33;0.00;;;;;24.35;42.25;102219.69;4939806;28;45450;-80
2024/04/09 21:26:49;;;;;;;;;2.00;1.00;;;;;24.38;42.06;102230.81;4939670;28;45419;-78
2024/04/09 21:29:15;;;;;;;;;0.00;0.00;;;;;24.39;41.95;102232.47;4931442;28;47302;-80
2024/04/09 21:31:40;;;;;;;;;0.00;0.00;;;;;24.40;41.84;102241.31;4935267;28;45488;-81
2024/04/09 21:34:05;;;;;;;;;0.00;0.00;;;;;24.39;42.13;102245.78;4939406;28;45295;-77
2024/04/09 21:36:31;;;;;;;;;0.00;0.00;;;;;24.39;41.48;102244.94;4939979;28;45289;-74
2024/04/09 21:38:56;;;;;;;;;0.00;0.00;;;;;24.37;41.79;102249.59;4938641;28;45561;-78
2024/04/09 21:41:22;;;;;;;;;0.00;0.00;;;;;24.35;41.73;102247.13;4939049;28;45286;-77
2024/04/09 21:43:47;;;;;;;;;0.00;0.00;;;;;24.26;41.62;102240.06;4939419;28;45243;-78
2024/04/09 21:46:13;;;;;;;;;1.00;0.00;;;;;24.08;41.36;102209.09;4939452;28;45237;-78
2024/04/09 21:48:39;;;;;;;;;2.00;0.00;;;;;24.21;41.09;102251.19;4939568;28;46500;-77
2024/04/09 21:51:05;;;;;;;;;0.00;0.00;;;;;24.30;41.35;102268.03;4939327;28;45380;-78
2024/04/09 21:53:31;;;;;;;;;0.00;0.00;;;;;24.29;41.37;102266.38;4939283;28;45347;-78
2024/04/09 21:55:56;;;;;;;;;1.00;1.00;;;;;24.18;41.41;102252.34;4939223;28;45466;-78
2024/04/09 21:58:22;;;;;;;;;0.00;0.00;;;;;24.06;41.26;102243.00;4939316;28;46013;-78
2024/04/09 22:00:51;;;;;;;;;0.00;0.00;;;;;24.05;40.89;102250.13;4939075;28;45269;-78
2024/04/09 22:03:19;;;;;;;;;0.00;0.00;;;;;24.22;41.11;102279.44;4939299;28;45428;-77
2024/04/09 22:05:44;;;;;;;;;0.00;0.00;;;;;24.15;41.07;102278.41;4939533;28;45391;-78
2024/04/09 22:08:09;;;;;;;;;0.00;0.00;;;;;24.18;41.36;102278.94;4938801;28;45514;-78
2024/04/09 22:10:35;;;;;;;;;0.00;0.00;;;;;24.18;40.83;102294.88;4939139;28;45412;-77
2024/04/09 22:13:00;;;;;;;;;0.00;0.00;;;;;23.74;41.37;102227.56;4939370;28;45585;-78
2024/04/09 22:15:26;;;;;;;;;0.00;0.00;;;;;24.15;41.44;102297.84;4939448;28;45372;-78
2024/04/09 22:17:51;;;;;;;;;0.33;0.00;;;;;24.13;41.08;102305.16;4939132;28;46103;-78
2024/04/09 22:20:21;;;;;;;;;2.00;0.00;;;;;24.13;41.01;102306.97;4939088;28;45364;-78
2024/04/09 22:22:47;;;;;;;;;1.00;1.00;;;;;23.96;41.07;102289.16;4938229;28;45236;-78
2024/04/09 22:25:12;;;;;;;;;0.00;0.00;;;;;24.11;40.92;102312.47;4939030;28;45340;-78
2024/04/09 22:27:37;;;;;;;;;1.00;0.00;;;;;24.01;40.81;102304.63;4938930;28;47195;-77
2024/04/09 22:30:03;;;;;;;;;0.00;0.00;;;;;23.96;40.96;102296.28;4939083;28;45412;-78
2024/04/09 22:32:29;;;;;;;;;2.00;0.00;;;;;24.02;41.13;102308.94;4939134;28;45359;-78
2024/04/09 22:34:56;;;;;;;;;0.00;0.00;;;;;24.04;40.97;102320.25;4938965;28;45546;-78
2024/04/09 22:37:21;;;;;;;;;0.00;0.00;;;;;23.95;40.83;102299.91;4938179;28;45354;-79
2024/04/09 22:39:46;;;;;;;;;0.67;0.00;;;;;24.07;40.83;102327.09;4938708;28;45324;-78
2024/04/09 22:42:12;;;;;;;;;0.67;0.00;;;;;23.94;40.78;102308.91;4938849;28;45299;-78
2024/04/09 22:44:37;;;;;;;;;0.00;0.00;;;;;24.04;41.07;102325.56;4938990;28;45443;-78
2024/04/09 22:47:03;;;;;;;;;0.00;0.00;;;;;24.04;40.44;102328.22;4938552;28;47337;-78
2024/04/09 22:49:29;;;;;;;;;0.00;0.00;;;;;24.04;40.62;102330.91;4938489;28;45398;-78
2024/04/09 22:51:54;;;;;;;;;1.00;0.00;;;;;23.91;40.67;102317.19;4938462;28;45346;-78
2024/04/09 22:54:19;;;;;;;;;0.33;0.00;;;;;23.89;40.61;102308.53;4938679;28;45528;-78
2024/04/09 22:56:45;;;;;;;;;1.00;1.00;;;;;24.04;40.62;102340.69;4938732;28;45423;-78
2024/04/09 22:59:10;;;;;;;;;1.00;0.00;;;;;24.01;40.58;102347.16;4938414;28;45199;-79
2024/04/09 23:01:35;;;;;;;;;1.00;0.00;;;;;23.82;40.36;102318.94;4938454;28;45308;-79
2024/04/09 23:04:01;;;;;;;;;1.00;1.00;;;;;24.00;40.57;102355.25;4938690;28;45312;-78
2024/04/09 23:06:26;;;;;;;;;0.33;0.00;;;;;23.95;40.31;102353.09;4920641;28;48057;-78
2024/04/09 23:08:53;;;;;;;;;1.33;0.33;;;;;23.93;40.34;102347.09;4938478;28;45510;-78
2024/04/09 23:11:18;;;;;;;;;2.33;1.00;;;;;24.00;40.40;102364.09;4936430;28;45393;-79
2024/04/09 23:13:43;;;;;;;;;0.00;0.00;;;;;24.01;40.43;102367.59;4938245;28;45229;-78
2024/04/09 23:16:10;;;;;;;;;2.00;0.00;;;;;24.00;40.77;102372.06;4937232;28;45354;-75
2024/04/09 23:18:36;;;;;;;;;1.00;1.00;;;;;24.01;40.28;102376.41;4937892;28;45363;-78
2024/04/09 23:21:03;;;;;;;;;0.00;0.00;;;;;23.97;40.64;102377.69;4937504;28;46212;-78
2024/04/09 23:23:30;;;;;;;;;0.00;0.00;;;;;23.97;40.46;102377.69;4938222;28;45435;-79
2024/04/09 23:25:55;;;;;;;;;0.00;0.00;;;;;23.87;40.40;102358.34;4938062;28;45506;-77
2024/04/09 23:28:21;;;;;;;;;0.00;0.00;;;;;23.98;40.26;102379.38;4937992;28;45375;-78
2024/04/09 23:30:48;;;;;;;;;0.00;0.00;;;;;23.96;40.35;102387.50;4938196;28;45310;-78
2024/04/09 23:33:13;;;;;;;;;0.00;0.00;;;;;23.87;40.51;102367.16;4936976;28;45543;-78
2024/04/09 23:35:39;;;;;;;;;0.00;0.00;;;;;23.88;40.69;102373.31;4937456;28;46104;-78
2024/04/09 23:38:04;;;;;;;;;0.00;0.00;;;;;23.90;40.46;102384.63;4937918;28;45432;-78
2024/04/09 23:40:36;;;;;;;;;0.33;0.00;;;;;23.85;40.28;102379.78;4938012;28;45337;-78
2024/04/09 23:43:01;;;;;;;;;0.00;0.00;;;;;23.91;40.35;102378.31;4937968;28;45426;-78
2024/04/09 23:45:27;;;;;;;;;0.00;0.00;;;;;23.90;40.39;102385.47;4937692;28;45982;-77
2024/04/09 23:47:53;;;;;;;;;0.33;0.33;;;;;23.93;40.36;102403.75;4937705;28;45202;-78
2024/04/09 23:50:19;;;;;;;;;0.00;0.00;;;;;23.82;40.61;102388.06;4937386;28;45163;-78
2024/04/09 23:52:46;;;;;;;;;0.00;0.00;;;;;23.85;40.37;102393.06;4937949;28;45297;-78
2024/04/09 23:55:11;;;;;;;;;0.33;0.33;;;;;23.87;40.49;102387.56;4937645;28;46424;-78
2024/04/09 23:57:36;;;;;;;;;1.33;0.00;;;;;23.89;40.48;102381.13;4937588;28;45314;-78
